Darstellungsparameter: Aktuell verwendete Einstellungen:
Skalierung der Graphiken ... ?
xyx+y,   Skalierungsfaktor:      Skalierung: Modus: x, Faktor: 1
Darstellungszeitraum ... ?
Vom - - bis: - -   Zeitraum: 22.10.2006 - 24.10.2006
Min/Max/Avg-Anzeige ... ?
Zeige MMA aktuell
Zeige MMA Monat
Zeige MMA alles
Zeige --A aktuell
Zeige --A Monat
Zeige --A alles
Keine MMA-Anzeige
MMA:
Average (ber die Originaldaten)
MMA-Basis: 22.10.2006 - 24.10.2006
Quicknavigation für Darstellung... ?
Tage:      1T, 2T, 3T, 5T -1T -2T -3T -5T +1T +2T +3T +5T
Wochen: 1W, 2W, 3W -1W -2W -3W +1W +2W +3W
Monate: 1M, 3M, 6M -1M -3M -6M +1M +3M +6M
Jahre:    1J, 3J, 5J, 10J -1J -3J -5J -10J +1J +3J +5J +10J
Nutze für die Darstellung ... ?
Originaldaten oder Mittelwerte auf ...
Stundenbasis Tagesbasis Wochenbasis
Monatsbasis Jahresbasis      Datenbasis: Original-Daten
Darstellen als:
Statistik (Auto) Statistik J:M      Darstellung:
Zur Graphik,    zurück zur Übersicht aller Sensoren.
 
Tabellarische Datenbersicht: ?
 
Sensor: Nr:Datum:Temp:Abs-Feuchte:Windchill:Wind:
Aussen-T/F 1 22-10-2006 00:01:01 13 C 10.21 g/m*3 13 C 0 km/h
2 22-10-2006 00:13:01 13.1 C 10.38 g/m*3 13.1 C 0 km/h
3 22-10-2006 00:25:02 13.1 C 10.27 g/m*3 13.1 C 0 km/h
4 22-10-2006 00:37:01 13 C 10.21 g/m*3 13 C 0 km/h
5 22-10-2006 00:49:02 13.1 C 10.38 g/m*3 13.1 C 0 km/h
6 22-10-2006 01:01:02 13.9 C 10.79 g/m*3 13.9 C 0 km/h
7 22-10-2006 01:13:02 14.6 C 10.39 g/m*3 14.6 C 0 km/h
8 22-10-2006 01:25:03 14.6 C 10.14 g/m*3 14.6 C 0 km/h
9 22-10-2006 01:37:02 14.6 C 10.14 g/m*3 14.6 C 0 km/h
10 22-10-2006 01:49:02 14.3 C 9.95 g/m*3 14.3 C 0 km/h
11 22-10-2006 02:01:02 14.5 C 9.95 g/m*3 14.5 C 0 km/h
12 22-10-2006 02:13:02 14.8 C 9.63 g/m*3 14.8 C 0 km/h
13 22-10-2006 02:25:02 14.8 C 9.63 g/m*3 14.8 C 0 km/h
14 22-10-2006 02:37:03 15 C 9.36 g/m*3 15 C 0 km/h
15 22-10-2006 02:50:03 14.7 C 9.44 g/m*3 14.7 C 0 km/h
16 22-10-2006 03:02:03 14.6 C 9.51 g/m*3 14.6 C 0 km/h
17 22-10-2006 03:14:03 14.7 C 9.32 g/m*3 14.7 C 0 km/h
18 22-10-2006 03:26:03 14.7 C 9.44 g/m*3 14.7 C 0 km/h
19 22-10-2006 03:38:04 14.5 C 9.45 g/m*3 14.5 C 0 km/h
20 22-10-2006 03:50:04 14.5 C 9.58 g/m*3 14.5 C 0 km/h
21 22-10-2006 04:02:03 14.4 C 9.39 g/m*3 14.4 C 0 km/h
22 22-10-2006 04:14:03 14.5 C 9.33 g/m*3 14.5 C 0 km/h
23 22-10-2006 04:26:03 14.5 C 9.2 g/m*3 14.5 C 0 km/h
24 22-10-2006 04:38:03 14.3 C 8.97 g/m*3 14.3 C 0 km/h
25 22-10-2006 04:50:02 13.9 C 9.11 g/m*3 13.9 C 0 km/h
Sensor: Nr:Datum:Temp:Abs-Feuchte:Windchill:Wind:
Aussen-T/F 26 22-10-2006 05:02:02 13.5 C 9.01 g/m*3 13.5 C 0 km/h
27 22-10-2006 05:14:02 13.2 C 8.96 g/m*3 13.2 C 0 km/h
28 22-10-2006 05:26:02 12.8 C 8.96 g/m*3 12.8 C 0 km/h
29 22-10-2006 05:38:02 12.6 C 8.85 g/m*3 12.6 C 0 km/h
30 22-10-2006 05:50:02 12.3 C 8.8 g/m*3 12.3 C 0 km/h
31 22-10-2006 06:02:02 12.1 C 8.9 g/m*3 12.1 C 0 km/h
32 22-10-2006 06:14:03 12.2 C 9.06 g/m*3 12.2 C 0 km/h
33 22-10-2006 06:26:02 12.4 C 9.18 g/m*3 12.4 C 0 km/h
34 22-10-2006 06:38:01 12 C 8.95 g/m*3 12 C 0 km/h
35 22-10-2006 06:50:02 11.9 C 9.11 g/m*3 11.9 C 0 km/h
36 22-10-2006 07:02:02 11.7 C 8.99 g/m*3 11.7 C 0 km/h
37 22-10-2006 07:14:02 11.5 C 8.99 g/m*3 11.5 C 0 km/h
38 22-10-2006 07:26:02 11.5 C 9.09 g/m*3 11.5 C 0 km/h
39 22-10-2006 07:38:02 11.3 C 8.98 g/m*3 11.3 C 0 km/h
40 22-10-2006 07:50:02 11.4 C 9.14 g/m*3 11.4 C 0 km/h
41 22-10-2006 08:02:02 11.5 C 9.19 g/m*3 11.5 C 0 km/h
42 22-10-2006 08:14:02 11.5 C 9.19 g/m*3 11.5 C 0 km/h
43 22-10-2006 08:26:01 11.9 C 9.43 g/m*3 11.9 C 0 km/h
44 22-10-2006 08:38:02 12 C 9.38 g/m*3 12 C 0 km/h
45 22-10-2006 08:50:02 12 C 9.27 g/m*3 12 C 0 km/h
46 22-10-2006 09:02:02 12.1 C 9.33 g/m*3 12.1 C 0 km/h
47 22-10-2006 09:14:02 12.5 C 9.46 g/m*3 12.5 C 0 km/h
48 22-10-2006 09:26:02 12.8 C 9.41 g/m*3 12.8 C 0 km/h
49 22-10-2006 09:38:01 13.1 C 9.24 g/m*3 13.1 C 0 km/h
50 22-10-2006 09:50:02 13.2 C 9.3 g/m*3 13.2 C 0 km/h
Sensor: Nr:Datum:Temp:Abs-Feuchte:Windchill:Wind:
Aussen-T/F 51 22-10-2006 10:02:02 13.7 C 9.24 g/m*3 13.7 C 0 km/h
52 22-10-2006 10:14:02 13.7 C 9.12 g/m*3 13.7 C 0 km/h
53 22-10-2006 10:26:02 13.8 C 9.29 g/m*3 13.8 C 0 km/h
54 22-10-2006 10:38:02 14.1 C 9.34 g/m*3 14.1 C 0 km/h
55 22-10-2006 10:50:02 14.4 C 9.27 g/m*3 14.4 C 0 km/h
56 22-10-2006 11:02:02 14.7 C 9.57 g/m*3 14.7 C 0 km/h
57 22-10-2006 11:14:02 15.4 C 9.46 g/m*3 15.4 C 0 km/h
58 22-10-2006 11:26:03 16.2 C 9.24 g/m*3 16.2 C 0 km/h
59 22-10-2006 11:38:02 16.6 C 9.18 g/m*3 16.6 C 0 km/h
60 22-10-2006 11:50:03 16.7 C 8.95 g/m*3 16.7 C 0 km/h
61 22-10-2006 12:02:03 16.8 C 8.86 g/m*3 16.8 C 0 km/h
62 22-10-2006 12:14:03 16.8 C 9.01 g/m*3 16.8 C 0 km/h
63 22-10-2006 12:26:02 16.6 C 8.76 g/m*3 16.6 C 0 km/h
64 22-10-2006 12:38:02 16.9 C 8.92 g/m*3 16.9 C 0 km/h
65 22-10-2006 12:50:02 17.1 C 8.88 g/m*3 17.1 C 0 km/h
66 22-10-2006 13:02:01 17.3 C 8.84 g/m*3 17.3 C 0 km/h
67 22-10-2006 13:14:01 17.7 C 8.75 g/m*3 17.7 C 0 km/h
68 22-10-2006 13:26:01 17.9 C 8.7 g/m*3 17.9 C 0 km/h
69 22-10-2006 13:38:02 18.1 C 8.81 g/m*3 18.1 C 0 km/h
70 22-10-2006 13:50:02 18.1 C 8.81 g/m*3 18.1 C 0 km/h
71 22-10-2006 14:02:02 18.1 C 8.5 g/m*3 18.1 C 0 km/h
72 22-10-2006 14:14:02 18.1 C 8.5 g/m*3 18.1 C 0 km/h
73 22-10-2006 14:26:02 18.2 C 8.7 g/m*3 18.2 C 0 km/h
74 22-10-2006 14:38:02 18.3 C 8.44 g/m*3 18.3 C 0 km/h
75 22-10-2006 14:50:02 18.5 C 8.7 g/m*3 18.5 C 0 km/h
Sensor: Nr:Datum:Temp:Abs-Feuchte:Windchill:Wind:
Aussen-T/F 76 22-10-2006 15:02:02 18.7 C 8.65 g/m*3 18.7 C 0 km/h
77 22-10-2006 15:14:02 18.9 C 9.07 g/m*3 18.9 C 0 km/h
78 22-10-2006 15:26:02 18.8 C 9.18 g/m*3 18.8 C 0 km/h
79 22-10-2006 15:38:02 19.3 C 8.96 g/m*3 19.3 C 0 km/h
80 22-10-2006 15:50:02 19.9 C 9.11 g/m*3 19.9 C 0 km/h
81 22-10-2006 16:02:03 20 C 8.99 g/m*3 20 C 0 km/h
82 22-10-2006 16:14:03 20.2 C 9.44 g/m*3 20.2 C 0 km/h
83 22-10-2006 16:26:02 19.5 C 9.4 g/m*3 19.5 C 0 km/h
84 22-10-2006 16:38:04 19.5 C 9.73 g/m*3 19.5 C 0 km/h
85 22-10-2006 16:50:02 19.4 C 9.84 g/m*3 19.4 C 0 km/h
86 22-10-2006 17:02:03 18.9 C 10.04 g/m*3 18.9 C 0 km/h
87 22-10-2006 17:14:03 18.9 C 10.21 g/m*3 18.9 C 0 km/h
88 22-10-2006 17:26:02 19.1 C 10.16 g/m*3 19.1 C 0 km/h
89 22-10-2006 17:38:02 18.7 C 10.09 g/m*3 18.7 C 0 km/h
90 22-10-2006 17:50:02 18.5 C 10.13 g/m*3 18.5 C 0 km/h
91 22-10-2006 18:02:01 18.2 C 10.1 g/m*3 18.2 C 0 km/h
92 22-10-2006 18:14:01 17.6 C 10.2 g/m*3 17.6 C 0 km/h
93 22-10-2006 18:26:02 16.9 C 10.07 g/m*3 16.9 C 0 km/h
94 22-10-2006 18:38:02 16.5 C 10.11 g/m*3 16.5 C 0 km/h
95 22-10-2006 18:50:02 16 C 10.08 g/m*3 16 C 0 km/h
96 22-10-2006 19:02:02 15.9 C 10.16 g/m*3 15.9 C 0 km/h
97 22-10-2006 19:14:02 15.6 C 10.11 g/m*3 15.6 C 0 km/h
98 22-10-2006 19:26:02 15.8 C 10.1 g/m*3 15.8 C 0 km/h
99 22-10-2006 19:38:02 15.7 C 10.03 g/m*3 15.7 C 0 km/h
100 22-10-2006 19:50:02 15.6 C 9.84 g/m*3 15.6 C 0 km/h
Sensor: Nr:Datum:Temp:Abs-Feuchte:Windchill:Wind:
Aussen-T/F 101 22-10-2006 20:02:02 15.4 C 9.85 g/m*3 15.4 C 0 km/h
102 22-10-2006 20:14:02 15.4 C 9.85 g/m*3 15.4 C 0 km/h
103 22-10-2006 20:26:02 15.4 C 9.85 g/m*3 15.4 C 0 km/h
104 22-10-2006 20:38:02 15.3 C 9.92 g/m*3 15.3 C 0 km/h
105 22-10-2006 20:50:02 15.8 C 9.83 g/m*3 15.8 C 0 km/h
106 22-10-2006 21:02:02 15.8 C 9.83 g/m*3 15.8 C 0 km/h
107 22-10-2006 21:14:02 16 C 9.81 g/m*3 16 C 0 km/h
108 22-10-2006 21:26:02 15.9 C 9.89 g/m*3 15.9 C 0 km/h
109 22-10-2006 21:38:03 15.8 C 9.83 g/m*3 15.8 C 0 km/h
110 22-10-2006 21:50:02 15.8 C 9.83 g/m*3 15.8 C 0 km/h
111 22-10-2006 22:02:02 16.1 C 9.73 g/m*3 16.1 C 0 km/h
112 22-10-2006 22:14:02 16.1 C 9.6 g/m*3 16.1 C 0 km/h
113 22-10-2006 22:26:02 16.3 C 9.43 g/m*3 16.3 C 0 km/h
114 22-10-2006 22:38:01 16.6 C 9.32 g/m*3 16.6 C 0 km/h
115 22-10-2006 22:50:01 16.5 C 9.27 g/m*3 16.5 C 0 km/h
116 22-10-2006 23:02:02 16.7 C 9.1 g/m*3 16.7 C 0 km/h
117 22-10-2006 23:14:02 16.8 C 9.15 g/m*3 16.8 C 0 km/h
118 22-10-2006 23:26:02 16.8 C 9.15 g/m*3 16.8 C 0 km/h
119 22-10-2006 23:38:01 16.8 C 9.01 g/m*3 16.8 C 0 km/h
120 22-10-2006 23:50:01 16.7 C 9.1 g/m*3 16.7 C 0 km/h
121 23-10-2006 00:02:01 16.7 C 8.95 g/m*3 16.7 C 0 km/h
122 23-10-2006 00:14:01 17 C 8.97 g/m*3 17 C 0 km/h
123 23-10-2006 00:26:02 16.7 C 9.1 g/m*3 16.7 C 0 km/h
124 23-10-2006 00:38:02 16.8 C 9.15 g/m*3 16.8 C 0 km/h
125 23-10-2006 00:50:02 16.7 C 9.1 g/m*3 16.7 C 0 km/h
Sensor: Nr:Datum:Temp:Abs-Feuchte:Windchill:Wind:
Aussen-T/F 126 23-10-2006 01:02:02 16.9 C 9.21 g/m*3 16.9 C 0 km/h
127 23-10-2006 01:14:03 16.8 C 9.15 g/m*3 16.8 C 0 km/h
128 23-10-2006 01:26:03 16.7 C 9.38 g/m*3 16.7 C 0 km/h
129 23-10-2006 01:38:03 16.1 C 9.6 g/m*3 16.1 C 0 km/h
130 23-10-2006 01:50:03 15.8 C 9.96 g/m*3 15.8 C 0 km/h
131 23-10-2006 02:02:03 15.5 C 10.05 g/m*3 15.5 C 0 km/h
132 23-10-2006 02:14:03 15.2 C 10.38 g/m*3 15.2 C 0 km/h
133 23-10-2006 02:26:02 15 C 10.51 g/m*3 15 C 0 km/h
134 23-10-2006 02:38:02 14.9 C 10.71 g/m*3 14.9 C 0 km/h
135 23-10-2006 02:51:03 14.8 C 10.77 g/m*3 14.8 C 0 km/h
136 23-10-2006 03:03:03 14.8 C 10.89 g/m*3 14.8 C 0 km/h
137 23-10-2006 03:15:05 14.8 C 11.02 g/m*3 14.8 C 0 km/h
138 23-10-2006 03:27:05 14.7 C 11.08 g/m*3 14.7 C 0 km/h
139 23-10-2006 03:39:02 14.8 C 11.27 g/m*3 14.8 C 0 km/h
140 23-10-2006 03:51:02 14.7 C 11.21 g/m*3 14.7 C 0 km/h
141 23-10-2006 04:03:01 15 C 11.28 g/m*3 15 C 0 km/h
142 23-10-2006 04:15:01 15.6 C 11.3 g/m*3 15.6 C 0 km/h
143 23-10-2006 04:27:01 15.8 C 11.31 g/m*3 15.8 C 0 km/h
144 23-10-2006 04:39:01 15.5 C 11.24 g/m*3 15.5 C 0 km/h
145 23-10-2006 04:51:02 15.6 C 11.3 g/m*3 15.6 C 0 km/h
146 23-10-2006 05:03:02 16.1 C 11.24 g/m*3 16.1 C 0 km/h
147 23-10-2006 05:15:02 16.6 C 11.02 g/m*3 16.6 C 0 km/h
148 23-10-2006 05:27:02 16.7 C 10.94 g/m*3 16.7 C 0 km/h
149 23-10-2006 05:39:02 16.4 C 11.03 g/m*3 16.4 C 0 km/h
150 23-10-2006 05:51:02 16.5 C 11.09 g/m*3 16.5 C 0 km/h
Sensor: Nr:Datum:Temp:Abs-Feuchte:Windchill:Wind:
Aussen-T/F 151 23-10-2006 06:03:02 16.7 C 10.94 g/m*3 16.7 C 0 km/h
152 23-10-2006 06:15:01 16.9 C 10.93 g/m*3 16.9 C 0 km/h
153 23-10-2006 06:27:01 17.1 C 10.63 g/m*3 17.1 C 0 km/h
154 23-10-2006 06:39:01 17 C 10.56 g/m*3 17 C 0 km/h
155 23-10-2006 06:51:02 17.1 C 10.48 g/m*3 17.1 C 0 km/h
156 23-10-2006 07:03:01 17.2 C 10.54 g/m*3 17.2 C 0 km/h
157 23-10-2006 07:15:01 17.3 C 10.46 g/m*3 17.3 C 0 km/h
158 23-10-2006 07:27:01 17.3 C 10.46 g/m*3 17.3 C 0 km/h
159 23-10-2006 07:39:01 17.5 C 10.44 g/m*3 17.5 C 0 km/h
160 23-10-2006 07:51:02 17.4 C 10.37 g/m*3 17.4 C 0 km/h
161 23-10-2006 08:03:01 17.6 C 10.5 g/m*3 17.6 C 0 km/h
162 23-10-2006 08:15:01 17.6 C 10.5 g/m*3 17.6 C 0 km/h
163 23-10-2006 08:27:01 17.5 C 10.29 g/m*3 17.5 C 0 km/h
164 23-10-2006 08:39:01 17.3 C 10.61 g/m*3 17.3 C 0 km/h
165 23-10-2006 08:51:02 17.4 C 10.67 g/m*3 17.4 C 0 km/h
166 23-10-2006 09:03:02 17.3 C 10.61 g/m*3 17.3 C 0 km/h
167 23-10-2006 09:15:02 17.2 C 10.69 g/m*3 17.2 C 0 km/h
168 23-10-2006 09:27:02 17.3 C 10.75 g/m*3 17.3 C 0 km/h
169 23-10-2006 09:39:03 17.3 C 10.75 g/m*3 17.3 C 0 km/h
170 23-10-2006 09:51:02 17.1 C 11.06 g/m*3 17.1 C 0 km/h
171 23-10-2006 10:03:02 16.9 C 11.36 g/m*3 16.9 C 0 km/h
172 23-10-2006 10:15:02 17.1 C 11.35 g/m*3 17.1 C 0 km/h
173 23-10-2006 10:27:02 17.5 C 11.18 g/m*3 17.5 C 0 km/h
174 23-10-2006 10:39:02 17.5 C 11.18 g/m*3 17.5 C 0 km/h
175 23-10-2006 10:51:02 17.7 C 11.16 g/m*3 17.7 C 0 km/h
Sensor: Nr:Datum:Temp:Abs-Feuchte:Windchill:Wind:
Aussen-T/F 176 23-10-2006 11:03:02 17.8 C 11.08 g/m*3 17.8 C 0 km/h
177 23-10-2006 11:15:01 18 C 11.06 g/m*3 18 C 0 km/h
178 23-10-2006 11:27:01 18.2 C 11.04 g/m*3 18.2 C 0 km/h
179 23-10-2006 11:39:02 18.4 C 11.01 g/m*3 18.4 C 0 km/h
180 23-10-2006 11:51:02 18.5 C 10.92 g/m*3 18.5 C 0 km/h
181 23-10-2006 12:03:02 18.6 C 10.98 g/m*3 18.6 C 0 km/h
182 23-10-2006 12:15:01 18.4 C 10.85 g/m*3 18.4 C 0 km/h
183 23-10-2006 12:27:01 18.5 C 10.92 g/m*3 18.5 C 0 km/h
184 23-10-2006 12:39:02 18.6 C 10.82 g/m*3 18.6 C 0 km/h
185 23-10-2006 12:51:02 18.6 C 10.82 g/m*3 18.6 C 0 km/h
186 23-10-2006 13:03:02 18.5 C 10.76 g/m*3 18.5 C 0 km/h
187 23-10-2006 13:15:02 18.4 C 10.85 g/m*3 18.4 C 0 km/h
188 23-10-2006 13:27:02 18.5 C 10.92 g/m*3 18.5 C 0 km/h
189 23-10-2006 13:39:01 18.5 C 10.92 g/m*3 18.5 C 0 km/h
190 23-10-2006 13:51:02 18.6 C 10.98 g/m*3 18.6 C 0 km/h
191 23-10-2006 14:03:02 18.6 C 10.82 g/m*3 18.6 C 0 km/h
192 23-10-2006 14:15:02 18.5 C 10.92 g/m*3 18.5 C 0 km/h
193 23-10-2006 14:27:03 18.3 C 10.79 g/m*3 18.3 C 0 km/h
194 23-10-2006 14:39:02 18.4 C 10.85 g/m*3 18.4 C 0 km/h
195 23-10-2006 14:51:02 18.9 C 10.85 g/m*3 18.9 C 0 km/h
196 23-10-2006 15:03:02 19.4 C 10.84 g/m*3 19.4 C 0 km/h
197 23-10-2006 15:15:02 19.5 C 10.74 g/m*3 19.5 C 0 km/h
198 23-10-2006 15:27:02 19.3 C 10.78 g/m*3 19.3 C 0 km/h
199 23-10-2006 15:39:03 19.2 C 10.88 g/m*3 19.2 C 0 km/h
200 23-10-2006 15:51:02 19.4 C 11.01 g/m*3 19.4 C 0 km/h
Sensor: Nr:Datum:Temp:Abs-Feuchte:Windchill:Wind:
Aussen-T/F 201 23-10-2006 16:03:02 19.4 C 10.84 g/m*3 19.4 C 0 km/h
202 23-10-2006 16:15:02 19.5 C 10.91 g/m*3 19.5 C 0 km/h
203 23-10-2006 16:27:02 19.4 C 10.84 g/m*3 19.4 C 0 km/h
204 23-10-2006 16:39:02 19.3 C 10.78 g/m*3 19.3 C 0 km/h
205 23-10-2006 16:51:02 19.2 C 10.88 g/m*3 19.2 C 0 km/h
206 23-10-2006 17:03:02 19.1 C 10.82 g/m*3 19.1 C 0 km/h
207 23-10-2006 17:15:02 18.9 C 11.02 g/m*3 18.9 C 0 km/h
208 23-10-2006 17:27:03 18.7 C 10.89 g/m*3 18.7 C 0 km/h
209 23-10-2006 17:39:02 18.4 C 10.85 g/m*3 18.4 C 0 km/h
210 23-10-2006 17:51:01 18.3 C 10.94 g/m*3 18.3 C 0 km/h
211 23-10-2006 18:03:01 18.1 C 10.82 g/m*3 18.1 C 0 km/h
212 23-10-2006 18:15:01 17.9 C 10.99 g/m*3 17.9 C 0 km/h
213 23-10-2006 18:27:01 17.7 C 11.01 g/m*3 17.7 C 0 km/h
214 23-10-2006 18:39:02 17.7 C 11.16 g/m*3 17.7 C 0 km/h
215 23-10-2006 18:51:02 17.5 C 11.03 g/m*3 17.5 C 0 km/h
216 23-10-2006 19:03:02 17.5 C 11.18 g/m*3 17.5 C 0 km/h
217 23-10-2006 19:15:02 17.5 C 11.18 g/m*3 17.5 C 0 km/h
218 23-10-2006 19:27:02 17.4 C 11.26 g/m*3 17.4 C 0 km/h
219 23-10-2006 19:39:03 17.3 C 11.34 g/m*3 17.3 C 0 km/h
220 23-10-2006 19:51:01 17.2 C 11.28 g/m*3 17.2 C 0 km/h
221 23-10-2006 20:03:01 17.2 C 11.42 g/m*3 17.2 C 0 km/h
222 23-10-2006 20:15:01 17.2 C 11.42 g/m*3 17.2 C 0 km/h
223 23-10-2006 20:27:01 16.8 C 11.58 g/m*3 16.8 C 0 km/h
224 23-10-2006 20:39:02 16.5 C 11.65 g/m*3 16.5 C 0 km/h
225 23-10-2006 20:51:02 16.4 C 11.86 g/m*3 16.4 C 0 km/h
Sensor: Nr:Datum:Temp:Abs-Feuchte:Windchill:Wind:
Aussen-T/F 226 23-10-2006 21:03:01 16.4 C 12.14 g/m*3 16.4 C 0 km/h
227 23-10-2006 21:15:01 16.2 C 12.14 g/m*3 16.2 C 0 km/h
228 23-10-2006 21:27:01 16.2 C 12.14 g/m*3 16.2 C 0 km/h
229 23-10-2006 21:39:02 16 C 12.13 g/m*3 16 C 0 km/h
230 23-10-2006 21:51:02 16 C 12.13 g/m*3 16 C 0 km/h
231 23-10-2006 22:03:01 16.1 C 12.34 g/m*3 16.1 C 0 km/h
232 23-10-2006 22:15:01 16.4 C 12.56 g/m*3 16.4 C 0 km/h
233 23-10-2006 22:27:01 16.4 C 12.42 g/m*3 16.4 C 0 km/h
234 23-10-2006 22:39:02 16.1 C 12.2 g/m*3 16.1 C 0 km/h
235 23-10-2006 22:51:02 16.1 C 12.2 g/m*3 16.1 C 0 km/h
236 23-10-2006 23:03:01 16 C 12.26 g/m*3 16 C 0 km/h
237 23-10-2006 23:15:01 16.1 C 12.34 g/m*3 16.1 C 0 km/h
238 23-10-2006 23:27:01 16.3 C 12.49 g/m*3 16.3 C 0 km/h
239 23-10-2006 23:39:02 16.6 C 12.57 g/m*3 16.6 C 0 km/h
240 23-10-2006 23:51:02 16.8 C 12.44 g/m*3 16.8 C 0 km/h
241 24-10-2006 00:03:03 16.6 C 12.43 g/m*3 16.6 C 0 km/h
242 24-10-2006 00:15:03 16.3 C 12.21 g/m*3 16.3 C 0 km/h
243 24-10-2006 00:27:03 16.2 C 12.14 g/m*3 16.2 C 0 km/h
244 24-10-2006 00:39:02 16 C 11.99 g/m*3 16 C 0 km/h
245 24-10-2006 00:51:02 15.8 C 11.85 g/m*3 15.8 C 0 km/h
246 24-10-2006 01:03:02 15.9 C 11.92 g/m*3 15.9 C 0 km/h
247 24-10-2006 01:15:03 16 C 11.72 g/m*3 16 C 0 km/h
248 24-10-2006 01:27:03 15.9 C 11.78 g/m*3 15.9 C 0 km/h
249 24-10-2006 01:39:03 15.8 C 11.71 g/m*3 15.8 C 0 km/h
250 24-10-2006 01:51:02 15.5 C 11.63 g/m*3 15.5 C 0 km/h
Sensor: Nr:Datum:Temp:Abs-Feuchte:Windchill:Wind:
Aussen-T/F 251 24-10-2006 02:03:02 15.4 C 11.69 g/m*3 15.4 C 0 km/h
252 24-10-2006 02:15:02 15.2 C 11.55 g/m*3 15.2 C 0 km/h
253 24-10-2006 02:27:02 15.1 C 11.61 g/m*3 15.1 C 0 km/h
254 24-10-2006 02:39:02 15.2 C 11.42 g/m*3 15.2 C 0 km/h
255 24-10-2006 02:52:04 15.3 C 11.23 g/m*3 15.3 C 0 km/h
256 24-10-2006 03:04:04 15.2 C 11.16 g/m*3 15.2 C 0 km/h
257 24-10-2006 03:16:03 15.6 C 11.04 g/m*3 15.6 C 0 km/h
258 24-10-2006 03:28:03 15.7 C 10.97 g/m*3 15.7 C 0 km/h
259 24-10-2006 03:40:02 15.2 C 11.03 g/m*3 15.2 C 0 km/h
260 24-10-2006 03:52:03 15 C 11.16 g/m*3 15 C 0 km/h
261 24-10-2006 04:04:02 15.1 C 11.35 g/m*3 15.1 C 0 km/h
262 24-10-2006 04:16:02 14.8 C 11.27 g/m*3 14.8 C 0 km/h
263 24-10-2006 04:28:02 14.5 C 11.07 g/m*3 14.5 C 0 km/h
264 24-10-2006 04:40:02 14.2 C 10.87 g/m*3 14.2 C 0 km/h
265 24-10-2006 04:52:02 14 C 10.74 g/m*3 14 C 0 km/h
266 24-10-2006 05:04:02 13.9 C 10.79 g/m*3 13.9 C 0 km/h
267 24-10-2006 05:16:02 13.7 C 10.54 g/m*3 13.7 C 0 km/h
268 24-10-2006 05:28:02 13.7 C 10.66 g/m*3 13.7 C 0 km/h
269 24-10-2006 05:40:02 13.3 C 10.28 g/m*3 13.3 C 0 km/h
270 24-10-2006 05:52:02 13 C 10.21 g/m*3 13 C 0 km/h
271 24-10-2006 06:04:02 12.8 C 10.19 g/m*3 12.8 C 0 km/h
272 24-10-2006 06:16:02 12.7 C 10.13 g/m*3 12.7 C 0 km/h
273 24-10-2006 06:28:02 12.7 C 10.13 g/m*3 12.7 C 0 km/h
274 24-10-2006 06:40:01 12.7 C 10.13 g/m*3 12.7 C 0 km/h
275 24-10-2006 06:52:02 12.6 C 9.96 g/m*3 12.6 C 0 km/h
Sensor: Nr:Datum:Temp:Abs-Feuchte:Windchill:Wind:
Aussen-T/F 276 24-10-2006 07:04:02 12.5 C 9.89 g/m*3 12.5 C 0 km/h
277 24-10-2006 07:16:01 12.6 C 9.85 g/m*3 12.6 C 0 km/h
278 24-10-2006 07:28:01 13 C 9.87 g/m*3 13 C 0 km/h
279 24-10-2006 07:40:02 13.4 C 9.76 g/m*3 13.4 C 0 km/h
280 24-10-2006 07:52:02 13.4 C 9.3 g/m*3 13.4 C 0 km/h
281 24-10-2006 08:04:01 13.6 C 9.06 g/m*3 13.6 C 0 km/h
282 24-10-2006 08:16:01 13.9 C 8.75 g/m*3 13.9 C 0 km/h
283 24-10-2006 08:28:01 14.4 C 8.41 g/m*3 14.4 C 0 km/h
284 24-10-2006 08:40:01 14.6 C 8.38 g/m*3 14.6 C 0 km/h
285 24-10-2006 08:52:02 14.8 C 8.23 g/m*3 14.8 C 0 km/h
286 24-10-2006 09:04:02 15 C 7.95 g/m*3 15 C 0 km/h
287 24-10-2006 09:16:02 15 C 7.95 g/m*3 15 C 0 km/h
288 24-10-2006 09:28:02 15 C 7.82 g/m*3 15 C 0 km/h
289 24-10-2006 09:40:02 15.1 C 8 g/m*3 15.1 C 0 km/h
290 24-10-2006 09:52:02 15 C 7.95 g/m*3 15 C 0 km/h
291 24-10-2006 10:04:02 15.1 C 8 g/m*3 15.1 C 0 km/h
292 24-10-2006 10:16:02 14.8 C 8.23 g/m*3 14.8 C 0 km/h
293 24-10-2006 10:28:02 14.8 C 8.36 g/m*3 14.8 C 0 km/h
294 24-10-2006 10:40:03 15.1 C 8.26 g/m*3 15.1 C 0 km/h
295 24-10-2006 10:52:02 15.3 C 8.23 g/m*3 15.3 C 0 km/h
296 24-10-2006 11:04:02 15.7 C 8.16 g/m*3 15.7 C 0 km/h
297 24-10-2006 11:16:02 15.8 C 8.08 g/m*3 15.8 C 0 km/h
298 24-10-2006 11:28:02 15.7 C 8.16 g/m*3 15.7 C 0 km/h
299 24-10-2006 11:40:02 15.7 C 8.16 g/m*3 15.7 C 0 km/h
300 24-10-2006 11:52:02 15.7 C 8.03 g/m*3 15.7 C 0 km/h
Sensor: Nr:Datum:Temp:Abs-Feuchte:Windchill:Wind:
Aussen-T/F 301 24-10-2006 12:04:02 16 C 7.9 g/m*3 16 C 0 km/h
302 24-10-2006 12:16:02 16.2 C 7.86 g/m*3 16.2 C 0 km/h
303 24-10-2006 12:28:02 16.3 C 7.77 g/m*3 16.3 C 0 km/h
304 24-10-2006 12:40:02 16.7 C 7.67 g/m*3 16.7 C 0 km/h
305 24-10-2006 12:52:02 16.7 C 7.67 g/m*3 16.7 C 0 km/h
306 24-10-2006 13:04:02 16.4 C 8.1 g/m*3 16.4 C 0 km/h
307 24-10-2006 13:16:02 16.4 C 8.1 g/m*3 16.4 C 0 km/h
308 24-10-2006 13:28:02 16.5 C 8.14 g/m*3 16.5 C 0 km/h
309 24-10-2006 13:40:02 16.6 C 8.05 g/m*3 16.6 C 0 km/h
310 24-10-2006 13:52:02 16.8 C 8.01 g/m*3 16.8 C 0 km/h
311 24-10-2006 14:04:02 16.5 C 8.14 g/m*3 16.5 C 0 km/h
312 24-10-2006 14:16:02 16.3 C 8.6 g/m*3 16.3 C 0 km/h
313 24-10-2006 14:28:02 16.1 C 8.22 g/m*3 16.1 C 0 km/h
314 24-10-2006 14:40:02 15.8 C 8.62 g/m*3 15.8 C 0 km/h
315 24-10-2006 14:52:02 16.2 C 8.27 g/m*3 16.2 C 0 km/h
316 24-10-2006 15:04:02 15.7 C 8.43 g/m*3 15.7 C 0 km/h
317 24-10-2006 15:16:02 15.5 C 8.33 g/m*3 15.5 C 0 km/h
318 24-10-2006 15:28:02 14.7 C 8.81 g/m*3 14.7 C 0 km/h
319 24-10-2006 15:40:02 13.9 C 9.11 g/m*3 13.9 C 0 km/h
320 24-10-2006 15:52:02 13.6 C 9.3 g/m*3 13.6 C 0 km/h
321 24-10-2006 16:04:02 13.6 C 9.18 g/m*3 13.6 C 0 km/h
322 24-10-2006 16:16:02 13.4 C 9.18 g/m*3 13.4 C 0 km/h
323 24-10-2006 16:28:02 13.1 C 9.36 g/m*3 13.1 C 0 km/h
324 24-10-2006 16:40:02 13.1 C 9.47 g/m*3 13.1 C 0 km/h
325 24-10-2006 16:52:02 13.3 C 9.47 g/m*3 13.3 C 0 km/h
Sensor: Nr:Datum:Temp:Abs-Feuchte:Windchill:Wind:
Aussen-T/F 326 24-10-2006 17:04:02 13.5 C 9.36 g/m*3 13.5 C 0 km/h
327 24-10-2006 17:16:01 13.5 C 9.36 g/m*3 13.5 C 0 km/h
328 24-10-2006 17:28:01 13.4 C 9.3 g/m*3 13.4 C 0 km/h
329 24-10-2006 17:40:02 13.1 C 9.47 g/m*3 13.1 C 0 km/h
330 24-10-2006 17:52:02 12.8 C 9.63 g/m*3 12.8 C 0 km/h
331 24-10-2006 18:04:02 12.8 C 9.63 g/m*3 12.8 C 0 km/h
332 24-10-2006 18:16:02 12.9 C 9.58 g/m*3 12.9 C 0 km/h
333 24-10-2006 18:28:02 13.1 C 9.36 g/m*3 13.1 C 0 km/h
334 24-10-2006 18:40:03 12.7 C 9.57 g/m*3 12.7 C 0 km/h
335 24-10-2006 18:52:02 12.8 C 9.74 g/m*3 12.8 C 0 km/h
336 24-10-2006 19:04:02 12.4 C 9.51 g/m*3 12.4 C 0 km/h
337 24-10-2006 19:16:02 12.4 C 9.4 g/m*3 12.4 C 0 km/h
338 24-10-2006 19:28:02 12.6 C 9.29 g/m*3 12.6 C 0 km/h
339 24-10-2006 19:40:02 12.8 C 9.18 g/m*3 12.8 C 0 km/h
340 24-10-2006 19:52:02 12.9 C 9.13 g/m*3 12.9 C 0 km/h
341 24-10-2006 20:04:02 13.1 C 8.9 g/m*3 13.1 C 0 km/h
342 24-10-2006 20:16:02 13 C 8.85 g/m*3 13 C 0 km/h
343 24-10-2006 20:28:02 13 C 8.96 g/m*3 13 C 0 km/h
344 24-10-2006 20:40:02 13 C 8.85 g/m*3 13 C 0 km/h
345 24-10-2006 20:52:02 13 C 8.96 g/m*3 13 C 0 km/h
346 24-10-2006 21:04:02 13 C 8.96 g/m*3 13 C 0 km/h
347 24-10-2006 21:16:02 12.6 C 9.29 g/m*3 12.6 C 0 km/h
348 24-10-2006 21:28:02 12.1 C 9.33 g/m*3 12.1 C 0 km/h
349 24-10-2006 21:40:02 11.9 C 9.32 g/m*3 11.9 C 0 km/h
350 24-10-2006 21:52:02 11.9 C 9.43 g/m*3 11.9 C 0 km/h
Sensor: Nr:Datum:Temp:Abs-Feuchte:Windchill:Wind:
Aussen-T/F 351 24-10-2006 22:04:02 11.7 C 9.31 g/m*3 11.7 C 0 km/h
352 24-10-2006 22:16:01 11.7 C 9.41 g/m*3 11.7 C 0 km/h
353 24-10-2006 22:28:01 11.6 C 9.35 g/m*3 11.6 C 0 km/h
354 24-10-2006 22:40:02 11.6 C 9.46 g/m*3 11.6 C 0 km/h
355 24-10-2006 22:52:02 11.5 C 9.4 g/m*3 11.5 C 0 km/h
356 24-10-2006 23:04:01 11.6 C 9.56 g/m*3 11.6 C 0 km/h
357 24-10-2006 23:16:01 11.6 C 9.56 g/m*3 11.6 C 0 km/h
358 24-10-2006 23:28:01 11.4 C 9.34 g/m*3 11.4 C 0 km/h
359 24-10-2006 23:40:02 11.4 C 9.44 g/m*3 11.4 C 0 km/h
360 24-10-2006 23:52:02 11.6 C 9.46 g/m*3 11.6 C 0 km/h

Legende:
   Min
   Max


Maximal/Minimal-Werte vom 22.10.2006 - 24.10.2006

Sensor Min Max Avg
Temp
(Aussen-T/F)
11.3 °C
22-10-2006  07:38:02
20.2 °C
22-10-2006  16:14:03
15.61 °C
Abs-Feuchte
(Aussen-T/F)
7.67 g/m*3
24-10-2006  12:40:02
12.57 g/m*3
23-10-2006  23:39:02
9.94 g/m*3
Windchill
(Aussen-T/F)
11.3 C
22-10-2006  07:38:02
20.2 C
22-10-2006  16:14:03
15.56 C

Die Daten stammen von einer Davis Vantage Pro 2 Wetter-Station und werden unter Linux mit der Software wview2wettercgi und aufbereitet. Alle Angaben erfolgen ohne Gewähr für ihre Vollständigkeit oder Richtigkeit.
Kontakt: Rainer Krienke krienke@uni-koblenz.de . Meine Webseiten an der Uni Koblenz oder privat.
Version: $Revision: 0.78 $